sensor_id;sensor_type;location;lat;lon;timestamp;P1;durP1;ratioP1;P2;durP2;ratioP2
37275;SDS011;23166;51.150;21.620;2022-09-19T00:00:48;3.75;;;2.15;;
37275;SDS011;23166;51.150;21.620;2022-09-19T00:03:16;3.62;;;1.70;;
37275;SDS011;23166;51.150;21.620;2022-09-19T00:05:43;3.95;;;1.95;;
37275;SDS011;23166;51.150;21.620;2022-09-19T00:08:09;3.05;;;1.55;;
37275;SDS011;23166;51.150;21.620;2022-09-19T00:10:43;3.25;;;1.27;;
37275;SDS011;23166;51.150;21.620;2022-09-19T00:13:08;1.65;;;1.05;;
37275;SDS011;23166;51.150;21.620;2022-09-19T00:15:45;2.85;;;1.10;;
37275;SDS011;23166;51.150;21.620;2022-09-19T00:18:14;1.17;;;0.80;;
37275;SDS011;23166;51.150;21.620;2022-09-19T00:20:41;1.75;;;1.65;;
37275;SDS011;23166;51.150;21.620;2022-09-19T00:23:13;2.37;;;1.25;;
37275;SDS011;23166;51.150;21.620;2022-09-19T00:26:02;3.22;;;0.82;;
37275;SDS011;23166;51.150;21.620;2022-09-19T00:28:30;1.12;;;1.02;;
37275;SDS011;23166;51.150;21.620;2022-09-19T00:30:57;1.52;;;1.20;;
37275;SDS011;23166;51.150;21.620;2022-09-19T00:33:25;5.12;;;1.02;;
37275;SDS011;23166;51.150;21.620;2022-09-19T00:36:00;5.42;;;1.40;;
37275;SDS011;23166;51.150;21.620;2022-09-19T00:38:26;2.22;;;1.37;;
37275;SDS011;23166;51.150;21.620;2022-09-19T00:40:54;4.97;;;1.67;;
37275;SDS011;23166;51.150;21.620;2022-09-19T00:43:22;2.98;;;1.22;;
37275;SDS011;23166;51.150;21.620;2022-09-19T00:45:51;5.78;;;1.45;;
37275;SDS011;23166;51.150;21.620;2022-09-19T00:50:48;2.60;;;1.42;;
37275;SDS011;23166;51.150;21.620;2022-09-19T00:53:17;6.10;;;1.25;;
37275;SDS011;23166;51.150;21.620;2022-09-19T00:55:49;1.40;;;0.80;;
37275;SDS011;23166;51.150;21.620;2022-09-19T00:58:23;3.67;;;1.62;;
37275;SDS011;23166;51.150;21.620;2022-09-19T01:01:03;6.45;;;1.30;;
37275;SDS011;23166;51.150;21.620;2022-09-19T01:03:30;4.90;;;1.55;;
37275;SDS011;23166;51.150;21.620;2022-09-19T01:17:16;1.27;;;0.85;;
37275;SDS011;23166;51.150;21.620;2022-09-19T01:20:02;1.85;;;1.15;;
37275;SDS011;23166;51.150;21.620;2022-09-19T01:22:45;2.40;;;0.72;;
37275;SDS011;23166;51.150;21.620;2022-09-19T01:39:31;1.75;;;0.93;;
37275;SDS011;23166;51.150;21.620;2022-09-19T01:42:00;1.67;;;0.88;;
37275;SDS011;23166;51.150;21.620;2022-09-19T01:44:27;4.65;;;1.27;;
37275;SDS011;23166;51.150;21.620;2022-09-19T01:58:00;1.72;;;1.35;;
37275;SDS011;23166;51.150;21.620;2022-09-19T02:00:26;1.15;;;0.95;;
37275;SDS011;23166;51.150;21.620;2022-09-19T02:08:36;1.65;;;1.02;;
37275;SDS011;23166;51.150;21.620;2022-09-19T02:11:16;4.43;;;0.90;;
37275;SDS011;23166;51.150;21.620;2022-09-19T02:13:46;7.20;;;0.93;;
37275;SDS011;23166;51.150;21.620;2022-09-19T02:16:19;2.20;;;0.72;;
37275;SDS011;23166;51.150;21.620;2022-09-19T02:18:56;2.87;;;1.27;;
37275;SDS011;23166;51.150;21.620;2022-09-19T02:21:23;0.80;;;0.60;;
37275;SDS011;23166;51.150;21.620;2022-09-19T02:23:52;5.20;;;1.00;;
37275;SDS011;23166;51.150;21.620;2022-09-19T02:26:21;0.62;;;0.62;;
37275;SDS011;23166;51.150;21.620;2022-09-19T02:28:49;3.00;;;0.80;;
37275;SDS011;23166;51.150;21.620;2022-09-19T02:31:20;1.65;;;1.07;;
37275;SDS011;23166;51.150;21.620;2022-09-19T02:33:50;2.75;;;1.15;;
37275;SDS011;23166;51.150;21.620;2022-09-19T02:36:24;0.85;;;0.82;;
37275;SDS011;23166;51.150;21.620;2022-09-19T02:39:01;3.05;;;1.12;;
37275;SDS011;23166;51.150;21.620;2022-09-19T02:49:46;0.98;;;0.82;;
37275;SDS011;23166;51.150;21.620;2022-09-19T02:52:18;3.12;;;0.78;;
37275;SDS011;23166;51.150;21.620;2022-09-19T02:54:48;3.87;;;1.85;;
37275;SDS011;23166;51.150;21.620;2022-09-19T02:57:19;1.35;;;1.22;;
37275;SDS011;23166;51.150;21.620;2022-09-19T02:59:49;1.27;;;0.93;;
37275;SDS011;23166;51.150;21.620;2022-09-19T03:02:25;4.45;;;1.98;;
37275;SDS011;23166;51.150;21.620;2022-09-19T03:04:51;4.65;;;2.33;;
37275;SDS011;23166;51.150;21.620;2022-09-19T03:07:20;3.25;;;1.40;;
37275;SDS011;23166;51.150;21.620;2022-09-19T03:15:22;2.08;;;1.12;;
37275;SDS011;23166;51.150;21.620;2022-09-19T03:17:47;2.40;;;1.65;;
37275;SDS011;23166;51.150;21.620;2022-09-19T03:20:16;4.20;;;1.50;;
37275;SDS011;23166;51.150;21.620;2022-09-19T03:22:44;10.60;;;1.95;;
37275;SDS011;23166;51.150;21.620;2022-09-19T03:25:11;4.00;;;1.55;;
37275;SDS011;23166;51.150;21.620;2022-09-19T03:27:40;1.47;;;1.00;;
37275;SDS011;23166;51.150;21.620;2022-09-19T03:30:08;1.12;;;1.02;;
37275;SDS011;23166;51.150;21.620;2022-09-19T03:32:37;4.47;;;1.22;;
37275;SDS011;23166;51.150;21.620;2022-09-19T03:35:04;3.15;;;1.67;;
37275;SDS011;23166;51.150;21.620;2022-09-19T03:37:31;5.70;;;1.77;;
37275;SDS011;23166;51.150;21.620;2022-09-19T03:39:58;2.90;;;1.27;;
37275;SDS011;23166;51.150;21.620;2022-09-19T03:42:25;4.78;;;1.47;;
37275;SDS011;23166;51.150;21.620;2022-09-19T03:44:52;6.12;;;1.50;;
37275;SDS011;23166;51.150;21.620;2022-09-19T03:49:47;5.90;;;1.30;;
37275;SDS011;23166;51.150;21.620;2022-09-19T03:52:17;2.10;;;1.20;;
37275;SDS011;23166;51.150;21.620;2022-09-19T03:54:44;6.35;;;1.50;;
37275;SDS011;23166;51.150;21.620;2022-09-19T03:57:11;3.60;;;1.37;;
37275;SDS011;23166;51.150;21.620;2022-09-19T03:59:39;1.60;;;1.50;;
37275;SDS011;23166;51.150;21.620;2022-09-19T04:02:09;5.20;;;2.30;;
37275;SDS011;23166;51.150;21.620;2022-09-19T04:04:36;3.98;;;2.12;;
37275;SDS011;23166;51.150;21.620;2022-09-19T04:07:03;16.55;;;6.65;;
37275;SDS011;23166;51.150;21.620;2022-09-19T04:09:30;4.80;;;2.92;;
37275;SDS011;23166;51.150;21.620;2022-09-19T04:11:57;1.92;;;1.55;;
37275;SDS011;23166;51.150;21.620;2022-09-19T04:14:25;1.72;;;1.25;;
37275;SDS011;23166;51.150;21.620;2022-09-19T04:16:52;2.17;;;1.42;;
37275;SDS011;23166;51.150;21.620;2022-09-19T04:19:18;2.67;;;1.55;;
37275;SDS011;23166;51.150;21.620;2022-09-19T04:21:45;1.40;;;1.20;;
37275;SDS011;23166;51.150;21.620;2022-09-19T04:26:38;3.95;;;1.57;;
37275;SDS011;23166;51.150;21.620;2022-09-19T04:29:07;3.52;;;1.98;;
37275;SDS011;23166;51.150;21.620;2022-09-19T04:31:33;2.00;;;1.15;;
37275;SDS011;23166;51.150;21.620;2022-09-19T04:34:06;0.93;;;0.93;;
37275;SDS011;23166;51.150;21.620;2022-09-19T04:36:33;1.50;;;1.15;;
37275;SDS011;23166;51.150;21.620;2022-09-19T04:39:00;1.60;;;1.30;;
37275;SDS011;23166;51.150;21.620;2022-09-19T04:41:32;1.30;;;1.20;;
37275;SDS011;23166;51.150;21.620;2022-09-19T04:43:59;2.67;;;1.52;;
37275;SDS011;23166;51.150;21.620;2022-09-19T04:46:28;1.77;;;1.60;;
37275;SDS011;23166;51.150;21.620;2022-09-19T04:48:55;1.98;;;1.27;;
37275;SDS011;23166;51.150;21.620;2022-09-19T04:51:22;1.62;;;1.32;;
37275;SDS011;23166;51.150;21.620;2022-09-19T04:53:50;1.15;;;0.80;;
37275;SDS011;23166;51.150;21.620;2022-09-19T04:56:17;3.15;;;1.67;;
37275;SDS011;23166;51.150;21.620;2022-09-19T04:58:44;1.70;;;1.12;;
37275;SDS011;23166;51.150;21.620;2022-09-19T05:01:11;3.62;;;1.22;;
37275;SDS011;23166;51.150;21.620;2022-09-19T05:03:40;8.30;;;1.52;;
37275;SDS011;23166;51.150;21.620;2022-09-19T05:06:08;1.12;;;1.07;;
37275;SDS011;23166;51.150;21.620;2022-09-19T05:11:04;1.00;;;0.90;;
37275;SDS011;23166;51.150;21.620;2022-09-19T05:13:33;2.20;;;1.40;;
37275;SDS011;23166;51.150;21.620;2022-09-19T05:16:03;6.12;;;1.52;;
37275;SDS011;23166;51.150;21.620;2022-09-19T05:18:31;3.95;;;1.77;;
37275;SDS011;23166;51.150;21.620;2022-09-19T05:21:06;4.15;;;1.47;;
37275;SDS011;23166;51.150;21.620;2022-09-19T05:23:36;3.50;;;1.70;;
37275;SDS011;23166;51.150;21.620;2022-09-19T05:26:08;2.90;;;1.75;;
37275;SDS011;23166;51.150;21.620;2022-09-19T05:28:36;7.03;;;1.95;;
37275;SDS011;23166;51.150;21.620;2022-09-19T05:31:03;2.15;;;1.60;;
37275;SDS011;23166;51.150;21.620;2022-09-19T05:33:34;4.65;;;1.62;;
37275;SDS011;23166;51.150;21.620;2022-09-19T05:36:01;5.50;;;2.12;;
37275;SDS011;23166;51.150;21.620;2022-09-19T05:38:29;2.92;;;1.98;;
37275;SDS011;23166;51.150;21.620;2022-09-19T05:40:58;2.08;;;1.98;;
37275;SDS011;23166;51.150;21.620;2022-09-19T05:43:25;4.40;;;1.40;;
37275;SDS011;23166;51.150;21.620;2022-09-19T05:45:53;2.75;;;1.57;;
37275;SDS011;23166;51.150;21.620;2022-09-19T05:48:21;1.37;;;1.10;;
37275;SDS011;23166;51.150;21.620;2022-09-19T05:50:49;1.35;;;1.17;;
37275;SDS011;23166;51.150;21.620;2022-09-19T05:53:17;4.22;;;1.57;;
37275;SDS011;23166;51.150;21.620;2022-09-19T05:56:02;1.00;;;0.93;;
37275;SDS011;23166;51.150;21.620;2022-09-19T05:58:30;2.35;;;1.42;;
37275;SDS011;23166;51.150;21.620;2022-09-19T06:01:02;3.30;;;0.68;;
37275;SDS011;23166;51.150;21.620;2022-09-19T06:03:32;2.40;;;1.55;;
37275;SDS011;23166;51.150;21.620;2022-09-19T06:08:25;2.22;;;1.27;;
37275;SDS011;23166;51.150;21.620;2022-09-19T06:10:52;5.42;;;1.52;;
37275;SDS011;23166;51.150;21.620;2022-09-19T06:13:22;1.30;;;1.20;;
37275;SDS011;23166;51.150;21.620;2022-09-19T06:15:48;6.15;;;1.50;;
37275;SDS011;23166;51.150;21.620;2022-09-19T06:18:15;3.08;;;2.52;;
37275;SDS011;23166;51.150;21.620;2022-09-19T06:20:42;10.43;;;5.22;;
37275;SDS011;23166;51.150;21.620;2022-09-19T06:23:10;5.50;;;1.47;;
37275;SDS011;23166;51.150;21.620;2022-09-19T06:25:37;4.05;;;3.45;;
37275;SDS011;23166;51.150;21.620;2022-09-19T06:28:11;14.40;;;7.65;;
37275;SDS011;23166;51.150;21.620;2022-09-19T06:30:37;3.27;;;2.75;;
37275;SDS011;23166;51.150;21.620;2022-09-19T06:33:05;4.72;;;2.85;;
37275;SDS011;23166;51.150;21.620;2022-09-19T06:35:32;16.85;;;8.20;;
37275;SDS011;23166;51.150;21.620;2022-09-19T06:38:00;14.65;;;6.10;;
37275;SDS011;23166;51.150;21.620;2022-09-19T06:40:28;4.85;;;2.60;;
37275;SDS011;23166;51.150;21.620;2022-09-19T06:42:56;25.57;;;8.93;;
37275;SDS011;23166;51.150;21.620;2022-09-19T06:45:30;3.62;;;2.08;;
37275;SDS011;23166;51.150;21.620;2022-09-19T06:48:01;10.50;;;4.20;;
37275;SDS011;23166;51.150;21.620;2022-09-19T06:50:28;6.72;;;2.92;;
37275;SDS011;23166;51.150;21.620;2022-09-19T06:52:55;3.75;;;1.60;;
37275;SDS011;23166;51.150;21.620;2022-09-19T06:57:51;3.87;;;1.80;;
37275;SDS011;23166;51.150;21.620;2022-09-19T07:00:23;1.45;;;1.22;;
37275;SDS011;23166;51.150;21.620;2022-09-19T07:02:57;2.47;;;1.77;;
37275;SDS011;23166;51.150;21.620;2022-09-19T07:05:20;2.08;;;1.77;;
37275;SDS011;23166;51.150;21.620;2022-09-19T07:07:47;1.40;;;1.30;;
37275;SDS011;23166;51.150;21.620;2022-09-19T07:10:15;4.75;;;3.47;;
37275;SDS011;23166;51.150;21.620;2022-09-19T07:12:42;6.65;;;2.60;;
37275;SDS011;23166;51.150;21.620;2022-09-19T07:15:08;3.70;;;2.42;;
37275;SDS011;23166;51.150;21.620;2022-09-19T07:17:35;3.05;;;2.62;;
37275;SDS011;23166;51.150;21.620;2022-09-19T07:20:02;4.85;;;3.08;;
37275;SDS011;23166;51.150;21.620;2022-09-19T07:22:28;5.58;;;3.17;;
37275;SDS011;23166;51.150;21.620;2022-09-19T07:24:54;12.10;;;5.08;;
37275;SDS011;23166;51.150;21.620;2022-09-19T07:27:21;3.95;;;2.50;;
37275;SDS011;23166;51.150;21.620;2022-09-19T07:29:47;4.72;;;2.20;;
37275;SDS011;23166;51.150;21.620;2022-09-19T07:32:14;3.20;;;1.30;;
37275;SDS011;23166;51.150;21.620;2022-09-19T07:34:40;4.85;;;2.30;;
37275;SDS011;23166;51.150;21.620;2022-09-19T07:37:07;1.90;;;1.50;;
37275;SDS011;23166;51.150;21.620;2022-09-19T07:39:33;1.82;;;1.25;;
37275;SDS011;23166;51.150;21.620;2022-09-19T07:42:00;3.22;;;1.42;;
37275;SDS011;23166;51.150;21.620;2022-09-19T07:44:27;1.90;;;1.72;;
37275;SDS011;23166;51.150;21.620;2022-09-19T07:46:53;1.55;;;1.45;;
37275;SDS011;23166;51.150;21.620;2022-09-19T07:49:38;0.93;;;0.88;;
37275;SDS011;23166;51.150;21.620;2022-09-19T07:52:05;4.40;;;2.55;;
37275;SDS011;23166;51.150;21.620;2022-09-19T07:54:32;2.15;;;1.95;;
37275;SDS011;23166;51.150;21.620;2022-09-19T07:56:59;3.02;;;2.30;;
37275;SDS011;23166;51.150;21.620;2022-09-19T07:59:26;2.10;;;1.27;;
37275;SDS011;23166;51.150;21.620;2022-09-19T08:01:52;1.57;;;1.35;;
37275;SDS011;23166;51.150;21.620;2022-09-19T08:04:18;1.92;;;1.65;;
37275;SDS011;23166;51.150;21.620;2022-09-19T08:06:45;2.22;;;1.70;;
37275;SDS011;23166;51.150;21.620;2022-09-19T08:09:11;1.52;;;1.40;;
37275;SDS011;23166;51.150;21.620;2022-09-19T08:11:37;1.92;;;1.47;;
37275;SDS011;23166;51.150;21.620;2022-09-19T08:14:04;2.58;;;1.55;;
37275;SDS011;23166;51.150;21.620;2022-09-19T08:16:31;1.98;;;1.42;;
37275;SDS011;23166;51.150;21.620;2022-09-19T08:18:58;4.85;;;1.50;;
37275;SDS011;23166;51.150;21.620;2022-09-19T08:21:24;2.45;;;1.40;;
37275;SDS011;23166;51.150;21.620;2022-09-19T08:23:51;3.50;;;2.20;;
37275;SDS011;23166;51.150;21.620;2022-09-19T08:26:17;1.65;;;1.27;;
37275;SDS011;23166;51.150;21.620;2022-09-19T08:28:44;5.05;;;1.30;;
37275;SDS011;23166;51.150;21.620;2022-09-19T08:31:14;1.60;;;1.50;;
37275;SDS011;23166;51.150;21.620;2022-09-19T08:33:40;2.02;;;1.27;;
37275;SDS011;23166;51.150;21.620;2022-09-19T08:36:07;1.05;;;0.98;;
37275;SDS011;23166;51.150;21.620;2022-09-19T08:38:35;3.20;;;1.87;;
37275;SDS011;23166;51.150;21.620;2022-09-19T08:49:40;0.80;;;0.80;;
37275;SDS011;23166;51.150;21.620;2022-09-19T08:54:57;1.57;;;1.25;;
37275;SDS011;23166;51.150;21.620;2022-09-19T08:57:31;1.02;;;1.00;;
37275;SDS011;23166;51.150;21.620;2022-09-19T09:00:04;1.57;;;0.93;;
37275;SDS011;23166;51.150;21.620;2022-09-19T09:05:17;1.77;;;1.07;;
37275;SDS011;23166;51.150;21.620;2022-09-19T09:07:46;2.62;;;1.07;;
37275;SDS011;23166;51.150;21.620;2022-09-19T09:10:20;1.32;;;1.20;;
37275;SDS011;23166;51.150;21.620;2022-09-19T09:13:13;6.05;;;1.32;;
37275;SDS011;23166;51.150;21.620;2022-09-19T09:15:49;1.62;;;1.17;;
37275;SDS011;23166;51.150;21.620;2022-09-19T09:24:17;3.65;;;1.27;;
37275;SDS011;23166;51.150;21.620;2022-09-19T09:26:51;1.20;;;1.10;;
37275;SDS011;23166;51.150;21.620;2022-09-19T09:32:40;4.28;;;1.62;;
37275;SDS011;23166;51.150;21.620;2022-09-19T09:34:28;2.05;;;1.45;;
37275;SDS011;23166;51.150;21.620;2022-09-19T09:37:13;1.82;;;1.27;;
37275;SDS011;23166;51.150;21.620;2022-09-19T09:39:46;2.50;;;1.62;;
37275;SDS011;23166;51.150;21.620;2022-09-19T09:42:47;2.87;;;1.40;;
37275;SDS011;23166;51.150;21.620;2022-09-19T09:48:09;2.35;;;1.10;;
37275;SDS011;23166;51.150;21.620;2022-09-19T09:56:49;4.03;;;1.75;;
37275;SDS011;23166;51.150;21.620;2022-09-19T09:59:28;4.70;;;1.42;;
37275;SDS011;23166;51.150;21.620;2022-09-19T10:05:18;1.55;;;1.17;;
37275;SDS011;23166;51.150;21.620;2022-09-19T10:07:52;2.12;;;1.25;;
37275;SDS011;23166;51.150;21.620;2022-09-19T10:10:21;4.80;;;1.82;;
37275;SDS011;23166;51.150;21.620;2022-09-19T10:12:49;1.92;;;1.62;;
37275;SDS011;23166;51.150;21.620;2022-09-19T10:15:24;1.10;;;0.97;;
37275;SDS011;23166;51.150;21.620;2022-09-19T10:17:55;1.55;;;1.22;;
37275;SDS011;23166;51.150;21.620;2022-09-19T10:20:27;2.42;;;1.50;;
37275;SDS011;23166;51.150;21.620;2022-09-19T10:22:55;1.12;;;1.00;;
37275;SDS011;23166;51.150;21.620;2022-09-19T10:25:22;2.00;;;1.50;;
37275;SDS011;23166;51.150;21.620;2022-09-19T10:27:50;4.97;;;1.80;;
37275;SDS011;23166;51.150;21.620;2022-09-19T10:30:18;3.55;;;1.47;;
37275;SDS011;23166;51.150;21.620;2022-09-19T10:32:49;2.47;;;1.32;;
37275;SDS011;23166;51.150;21.620;2022-09-19T10:37:51;1.90;;;1.72;;
37275;SDS011;23166;51.150;21.620;2022-09-19T10:40:21;3.40;;;1.60;;
37275;SDS011;23166;51.150;21.620;2022-09-19T10:42:49;3.00;;;1.55;;
37275;SDS011;23166;51.150;21.620;2022-09-19T10:47:56;2.77;;;1.80;;
37275;SDS011;23166;51.150;21.620;2022-09-19T10:50:21;2.75;;;1.92;;
37275;SDS011;23166;51.150;21.620;2022-09-19T10:52:49;2.95;;;1.98;;
37275;SDS011;23166;51.150;21.620;2022-09-19T10:55:18;5.05;;;2.02;;
37275;SDS011;23166;51.150;21.620;2022-09-19T10:57:53;7.33;;;2.00;;
37275;SDS011;23166;51.150;21.620;2022-09-19T11:00:29;2.15;;;1.95;;
37275;SDS011;23166;51.150;21.620;2022-09-19T11:08:39;4.62;;;2.85;;
37275;SDS011;23166;51.150;21.620;2022-09-19T11:20:11;4.05;;;1.80;;
37275;SDS011;23166;51.150;21.620;2022-09-19T11:30:48;1.65;;;1.25;;
37275;SDS011;23166;51.150;21.620;2022-09-19T11:33:40;1.27;;;1.17;;
37275;SDS011;23166;51.150;21.620;2022-09-19T11:44:52;3.73;;;1.50;;
37275;SDS011;23166;51.150;21.620;2022-09-19T11:48:40;2.42;;;1.57;;
37275;SDS011;23166;51.150;21.620;2022-09-19T11:50:31;4.03;;;2.22;;
37275;SDS011;23166;51.150;21.620;2022-09-19T12:01:00;1.32;;;1.10;;
37275;SDS011;23166;51.150;21.620;2022-09-19T12:06:21;3.80;;;1.15;;
37275;SDS011;23166;51.150;21.620;2022-09-19T12:14:11;2.70;;;1.17;;
37275;SDS011;23166;51.150;21.620;2022-09-19T12:16:40;1.62;;;1.52;;
37275;SDS011;23166;51.150;21.620;2022-09-19T12:19:22;2.67;;;1.32;;
37275;SDS011;23166;51.150;21.620;2022-09-19T12:21:58;5.33;;;1.20;;
37275;SDS011;23166;51.150;21.620;2022-09-19T12:24:28;2.95;;;1.15;;
37275;SDS011;23166;51.150;21.620;2022-09-19T12:30:19;1.80;;;1.20;;
37275;SDS011;23166;51.150;21.620;2022-09-19T12:35:58;3.08;;;1.57;;
37275;SDS011;23166;51.150;21.620;2022-09-19T12:40:59;1.67;;;1.05;;
37275;SDS011;23166;51.150;21.620;2022-09-19T12:51:21;1.32;;;0.93;;
37275;SDS011;23166;51.150;21.620;2022-09-19T12:53:57;0.78;;;0.60;;
37275;SDS011;23166;51.150;21.620;2022-09-19T12:56:26;1.75;;;0.93;;
37275;SDS011;23166;51.150;21.620;2022-09-19T13:01:44;0.78;;;0.68;;
37275;SDS011;23166;51.150;21.620;2022-09-19T13:15:41;1.35;;;0.98;;
37275;SDS011;23166;51.150;21.620;2022-09-19T13:18:12;3.60;;;0.90;;
37275;SDS011;23166;51.150;21.620;2022-09-19T13:20:59;2.08;;;0.88;;
37275;SDS011;23166;51.150;21.620;2022-09-19T13:23:44;2.00;;;1.57;;
37275;SDS011;23166;51.150;21.620;2022-09-19T13:28:44;0.90;;;0.90;;
37275;SDS011;23166;51.150;21.620;2022-09-19T13:31:13;1.07;;;0.98;;
37275;SDS011;23166;51.150;21.620;2022-09-19T13:33:43;1.87;;;1.02;;
37275;SDS011;23166;51.150;21.620;2022-09-19T13:36:14;0.93;;;0.55;;
37275;SDS011;23166;51.150;21.620;2022-09-19T13:38:44;1.22;;;1.00;;
37275;SDS011;23166;51.150;21.620;2022-09-19T13:46:56;2.25;;;1.90;;
37275;SDS011;23166;51.150;21.620;2022-09-19T13:52:16;1.42;;;0.62;;
37275;SDS011;23166;51.150;21.620;2022-09-19T13:54:59;0.95;;;0.82;;
37275;SDS011;23166;51.150;21.620;2022-09-19T13:57:34;2.30;;;0.70;;
37275;SDS011;23166;51.150;21.620;2022-09-19T14:00:08;1.25;;;0.70;;
37275;SDS011;23166;51.150;21.620;2022-09-19T14:02:40;0.60;;;0.53;;
37275;SDS011;23166;51.150;21.620;2022-09-19T14:05:17;3.22;;;1.32;;
37275;SDS011;23166;51.150;21.620;2022-09-19T14:07:58;0.85;;;0.40;;
37275;SDS011;23166;51.150;21.620;2022-09-19T14:10:35;0.98;;;0.55;;
37275;SDS011;23166;51.150;21.620;2022-09-19T14:21:10;2.60;;;0.90;;
37275;SDS011;23166;51.150;21.620;2022-09-19T14:23:41;0.60;;;0.60;;
37275;SDS011;23166;51.150;21.620;2022-09-19T14:28:52;0.72;;;0.72;;
37275;SDS011;23166;51.150;21.620;2022-09-19T14:39:50;0.42;;;0.42;;
37275;SDS011;23166;51.150;21.620;2022-09-19T14:45:29;0.50;;;0.50;;
37275;SDS011;23166;51.150;21.620;2022-09-19T14:48:14;2.77;;;0.47;;
37275;SDS011;23166;51.150;21.620;2022-09-19T14:50:56;0.70;;;0.62;;
37275;SDS011;23166;51.150;21.620;2022-09-19T14:53:25;0.70;;;0.50;;
37275;SDS011;23166;51.150;21.620;2022-09-19T14:56:28;0.65;;;0.57;;
37275;SDS011;23166;51.150;21.620;2022-09-19T14:58:50;1.10;;;0.80;;
37275;SDS011;23166;51.150;21.620;2022-09-19T15:03:57;2.05;;;1.25;;
37275;SDS011;23166;51.150;21.620;2022-09-19T15:06:30;2.15;;;1.57;;
37275;SDS011;23166;51.150;21.620;2022-09-19T15:09:02;3.55;;;1.22;;
37275;SDS011;23166;51.150;21.620;2022-09-19T15:11:29;1.90;;;0.85;;
37275;SDS011;23166;51.150;21.620;2022-09-19T15:13:55;3.85;;;1.50;;
37275;SDS011;23166;51.150;21.620;2022-09-19T15:16:22;7.70;;;1.15;;
37275;SDS011;23166;51.150;21.620;2022-09-19T15:18:50;4.65;;;1.27;;
37275;SDS011;23166;51.150;21.620;2022-09-19T15:21:20;1.27;;;1.10;;
37275;SDS011;23166;51.150;21.620;2022-09-19T15:23:49;3.02;;;1.40;;
37275;SDS011;23166;51.150;21.620;2022-09-19T15:26:21;2.75;;;1.17;;
37275;SDS011;23166;51.150;21.620;2022-09-19T15:31:28;4.42;;;1.85;;
37275;SDS011;23166;51.150;21.620;2022-09-19T15:34:02;3.65;;;2.37;;
37275;SDS011;23166;51.150;21.620;2022-09-19T15:36:31;4.92;;;1.65;;
37275;SDS011;23166;51.150;21.620;2022-09-19T15:39:01;6.70;;;2.35;;
37275;SDS011;23166;51.150;21.620;2022-09-19T15:41:30;9.00;;;2.47;;
37275;SDS011;23166;51.150;21.620;2022-09-19T15:43:58;4.25;;;1.52;;
37275;SDS011;23166;51.150;21.620;2022-09-19T15:49:16;5.53;;;2.15;;
37275;SDS011;23166;51.150;21.620;2022-09-19T15:51:42;1.52;;;1.20;;
37275;SDS011;23166;51.150;21.620;2022-09-19T15:54:17;3.20;;;2.15;;
37275;SDS011;23166;51.150;21.620;2022-09-19T15:56:47;1.77;;;1.60;;
37275;SDS011;23166;51.150;21.620;2022-09-19T15:59:16;5.33;;;2.58;;
37275;SDS011;23166;51.150;21.620;2022-09-19T16:01:45;4.78;;;2.12;;
37275;SDS011;23166;51.150;21.620;2022-09-19T16:04:17;4.28;;;2.25;;
37275;SDS011;23166;51.150;21.620;2022-09-19T16:14:54;12.28;;;6.00;;
37275;SDS011;23166;51.150;21.620;2022-09-19T16:17:22;7.95;;;4.40;;
37275;SDS011;23166;51.150;21.620;2022-09-19T16:19:51;11.25;;;6.00;;
37275;SDS011;23166;51.150;21.620;2022-09-19T16:22:23;8.83;;;3.95;;
37275;SDS011;23166;51.150;21.620;2022-09-19T16:24:57;11.25;;;5.05;;
37275;SDS011;23166;51.150;21.620;2022-09-19T16:27:28;9.15;;;4.22;;
37275;SDS011;23166;51.150;21.620;2022-09-19T16:29:59;8.65;;;4.87;;
37275;SDS011;23166;51.150;21.620;2022-09-19T16:35:17;13.03;;;5.25;;
37275;SDS011;23166;51.150;21.620;2022-09-19T16:37:45;8.33;;;4.90;;
37275;SDS011;23166;51.150;21.620;2022-09-19T16:42:56;11.78;;;4.92;;
37275;SDS011;23166;51.150;21.620;2022-09-19T16:45:37;10.50;;;4.62;;
37275;SDS011;23166;51.150;21.620;2022-09-19T16:48:04;13.10;;;5.30;;
37275;SDS011;23166;51.150;21.620;2022-09-19T16:50:31;20.08;;;6.15;;
37275;SDS011;23166;51.150;21.620;2022-09-19T16:53:01;15.88;;;7.03;;
37275;SDS011;23166;51.150;21.620;2022-09-19T16:55:40;27.98;;;8.50;;
37275;SDS011;23166;51.150;21.620;2022-09-19T16:58:11;24.30;;;8.25;;
37275;SDS011;23166;51.150;21.620;2022-09-19T17:00:39;24.35;;;9.50;;
37275;SDS011;23166;51.150;21.620;2022-09-19T17:03:08;19.87;;;8.45;;
37275;SDS011;23166;51.150;21.620;2022-09-19T17:05:35;23.07;;;8.43;;
37275;SDS011;23166;51.150;21.620;2022-09-19T17:08:01;31.77;;;8.98;;
37275;SDS011;23166;51.150;21.620;2022-09-19T17:10:28;18.45;;;8.85;;
37275;SDS011;23166;51.150;21.620;2022-09-19T17:12:56;15.10;;;8.10;;
37275;SDS011;23166;51.150;21.620;2022-09-19T17:15:29;9.30;;;6.25;;
37275;SDS011;23166;51.150;21.620;2022-09-19T17:17:53;6.03;;;4.00;;
37275;SDS011;23166;51.150;21.620;2022-09-19T17:20:19;10.78;;;4.83;;
37275;SDS011;23166;51.150;21.620;2022-09-19T17:22:46;30.12;;;8.35;;
37275;SDS011;23166;51.150;21.620;2022-09-19T17:25:17;38.15;;;10.18;;
37275;SDS011;23166;51.150;21.620;2022-09-19T17:27:43;48.25;;;10.08;;
37275;SDS011;23166;51.150;21.620;2022-09-19T17:30:09;19.62;;;6.95;;
37275;SDS011;23166;51.150;21.620;2022-09-19T17:32:36;20.72;;;8.45;;
37275;SDS011;23166;51.150;21.620;2022-09-19T17:35:03;24.77;;;8.20;;
37275;SDS011;23166;51.150;21.620;2022-09-19T17:37:31;24.52;;;10.38;;
37275;SDS011;23166;51.150;21.620;2022-09-19T17:39:57;50.38;;;14.65;;
37275;SDS011;23166;51.150;21.620;2022-09-19T17:42:24;56.45;;;14.83;;
37275;SDS011;23166;51.150;21.620;2022-09-19T17:44:51;47.88;;;14.65;;
37275;SDS011;23166;51.150;21.620;2022-09-19T17:47:17;27.70;;;11.20;;
37275;SDS011;23166;51.150;21.620;2022-09-19T17:49:43;25.52;;;9.80;;
37275;SDS011;23166;51.150;21.620;2022-09-19T17:52:10;17.87;;;6.42;;
37275;SDS011;23166;51.150;21.620;2022-09-19T17:54:36;13.78;;;5.80;;
37275;SDS011;23166;51.150;21.620;2022-09-19T17:59:30;12.68;;;5.83;;
37275;SDS011;23166;51.150;21.620;2022-09-19T18:01:57;13.88;;;6.47;;
37275;SDS011;23166;51.150;21.620;2022-09-19T18:04:42;11.22;;;5.92;;
37275;SDS011;23166;51.150;21.620;2022-09-19T18:07:08;16.32;;;5.10;;
37275;SDS011;23166;51.150;21.620;2022-09-19T18:09:35;20.88;;;7.20;;
37275;SDS011;23166;51.150;21.620;2022-09-19T18:12:01;19.92;;;5.65;;
37275;SDS011;23166;51.150;21.620;2022-09-19T18:14:28;19.98;;;8.80;;
37275;SDS011;23166;51.150;21.620;2022-09-19T18:16:55;12.85;;;6.62;;
37275;SDS011;23166;51.150;21.620;2022-09-19T18:19:21;33.13;;;9.25;;
37275;SDS011;23166;51.150;21.620;2022-09-19T18:21:48;36.45;;;9.63;;
37275;SDS011;23166;51.150;21.620;2022-09-19T18:24:15;18.73;;;7.75;;
37275;SDS011;23166;51.150;21.620;2022-09-19T18:26:41;16.75;;;5.55;;
37275;SDS011;23166;51.150;21.620;2022-09-19T18:29:10;13.53;;;5.10;;
37275;SDS011;23166;51.150;21.620;2022-09-19T18:31:36;8.88;;;4.05;;
37275;SDS011;23166;51.150;21.620;2022-09-19T18:34:02;12.37;;;4.17;;
37275;SDS011;23166;51.150;21.620;2022-09-19T18:38:57;21.42;;;8.23;;
37275;SDS011;23166;51.150;21.620;2022-09-19T18:41:24;16.62;;;6.40;;
37275;SDS011;23166;51.150;21.620;2022-09-19T18:43:51;27.20;;;7.85;;
37275;SDS011;23166;51.150;21.620;2022-09-19T18:46:19;32.58;;;9.20;;
37275;SDS011;23166;51.150;21.620;2022-09-19T18:48:47;22.67;;;7.95;;
37275;SDS011;23166;51.150;21.620;2022-09-19T18:51:16;32.30;;;12.93;;
37275;SDS011;23166;51.150;21.620;2022-09-19T18:53:46;15.23;;;6.25;;
37275;SDS011;23166;51.150;21.620;2022-09-19T18:56:14;10.43;;;4.62;;